Terminal Aerodrome Forecast
Issued by NWS

Home | Current Version | Previous Version | Text Only | Print | Product List | Glossary On
Versions: 1 2 3 4 5 6 7 8 9 10 11 12 13 14
000
FTUS45 KTFX 212300
TAFBZN
TAF
KBZN 212331Z 2200/2224 VRB06KT P6SM VCTS SCT040CB
     FM220200 VRB05KT P6SM SCT040 BKN070
     FM221000 VRB05KT P6SM -SHRA SCT020 BKN050=

USA.gov is the U.S. government's official web portal to all federal, state and local government web resources and services.